Time;durP1;ratioP1;P1;durP2;ratioP2;P2;SDS_P1;SDS_P2;PMS_P1;PMS_P2;Temp;Humidity;BMP_temperature;BMP_pressure;BME280_temperature;BME280_humidity;BME280_pressure;Samples;Min_cycle;Max_cycle;Signal;HPM_P1;HPM_P2
2022/08/31 00:06:28;;;;;;;3.00;1.83;;;17.30;99.90;;;;;;2621966;46;20750;31
2022/08/31 00:09:02;;;;;;;3.45;2.67;;;17.40;99.90;;;;;;2603338;54;20027;31
2022/08/31 00:11:40;;;;;;;4.95;2.00;;;17.40;99.90;;;;;;2621792;46;20042;31
2022/08/31 00:14:15;;;;;;;3.60;2.23;;;17.40;99.90;;;;;;2603599;54;20023;31
2022/08/31 00:16:49;;;;;;;6.60;1.90;;;17.40;99.90;;;;;;2603495;54;20042;31
2022/08/31 00:19:23;;;;;;;4.45;1.73;;;17.50;99.90;;;;;;2603567;54;20857;31
2022/08/31 00:21:59;;;;;;;6.53;2.07;;;17.40;99.90;;;;;;2603360;54;20030;31
2022/08/31 00:24:33;;;;;;;3.33;1.98;;;17.40;99.90;;;;;;2621899;46;21026;31
2022/08/31 00:27:14;;;;;;;5.13;2.25;;;17.50;99.90;;;;;;2603340;54;20907;31
2022/08/31 00:29:48;;;;;;;3.47;2.25;;;17.40;99.90;;;;;;2603239;54;20888;31
2022/08/31 00:32:23;;;;;;;4.38;2.10;;;17.30;99.90;;;;;;2603192;54;20068;31
2022/08/31 00:35:01;;;;;;;3.55;1.80;;;17.40;99.90;;;;;;2621837;46;20864;31
2022/08/31 00:37:37;;;;;;;4.05;1.67;;;17.50;99.90;;;;;;2603215;54;20034;31
2022/08/31 00:40:12;;;;;;;4.07;1.80;;;17.40;99.90;;;;;;2603401;54;20030;31
2022/08/31 00:42:53;;;;;;;4.25;2.03;;;17.40;99.90;;;;;;2603333;54;20845;31
2022/08/31 00:45:27;;;;;;;4.82;1.95;;;17.40;99.90;;;;;;2603094;54;20121;31
2022/08/31 00:48:02;;;;;;;2.80;1.42;;;17.30;99.90;;;;;;2602711;54;20831;31
2022/08/31 00:50:36;;;;;;;4.35;1.70;;;17.40;99.90;;;;;;2603044;54;20026;31
2022/08/31 00:53:12;;;;;;;4.22;1.75;;;17.40;99.90;;;;;;2603064;54;21031;31
2022/08/31 00:55:44;;;;;;;4.65;1.88;;;17.50;99.90;;;;;;2720006;39;21211;31
2022/08/31 00:58:23;;;;;;;5.80;2.10;;;17.30;99.90;;;;;;2603142;54;20057;31
2022/08/31 01:00:58;;;;;;;4.07;1.92;;;17.30;99.90;;;;;;2603159;54;20038;31
2022/08/31 01:03:32;;;;;;;4.95;1.80;;;17.30;99.90;;;;;;2603344;54;20835;31
2022/08/31 01:06:06;;;;;;;4.00;2.28;;;17.40;99.90;;;;;;2603365;54;20026;31
2022/08/31 01:08:40;;;;;;;5.90;2.10;;;17.30;99.90;;;;;;2603140;54;20094;31
2022/08/31 01:11:15;;;;;;;4.85;1.75;;;17.30;99.90;;;;;;2603113;54;20148;31
2022/08/31 01:13:48;;;;;;;4.90;2.07;;;17.30;99.90;;;;;;2621297;46;20026;31
2022/08/31 01:16:27;;;;;;;4.63;1.85;;;17.30;99.90;;;;;;2603010;54;20031;31
2022/08/31 01:19:05;;;;;;;4.17;2.27;;;17.30;99.90;;;;;;2602995;54;20739;31
2022/08/31 01:21:42;;;;;;;3.17;1.67;;;17.20;99.90;;;;;;2621479;46;20081;31
2022/08/31 01:24:19;;;;;;;3.75;2.25;;;17.20;99.90;;;;;;2604902;47;20886;31
2022/08/31 01:29:30;;;;;;;5.35;1.80;;;17.20;99.90;;;;;;2603357;54;20030;31
2022/08/31 01:32:05;;;;;;;3.03;1.92;;;17.30;99.90;;;;;;2603028;54;20037;31
2022/08/31 01:34:38;;;;;;;7.60;2.40;;;17.20;99.90;;;;;;2602831;54;20934;31
2022/08/31 01:37:14;;;;;;;3.75;1.85;;;17.20;99.90;;;;;;2621853;47;20808;31
2022/08/31 01:39:51;;;;;;;4.00;2.23;;;17.20;99.90;;;;;;2621002;47;20878;31
2022/08/31 01:42:26;;;;;;;4.00;1.92;;;17.10;99.90;;;;;;2603275;54;20034;31
2022/08/31 01:45:08;;;;;;;5.20;2.40;;;17.20;99.90;;;;;;2603013;54;20022;31
2022/08/31 01:47:42;;;;;;;5.15;2.00;;;17.20;99.90;;;;;;2603050;54;25118;31
2022/08/31 01:50:19;;;;;;;3.92;2.53;;;17.10;99.90;;;;;;2602872;54;20037;31
2022/08/31 01:52:55;;;;;;;3.88;2.60;;;17.10;99.90;;;;;;2602944;54;20123;31
2022/08/31 01:55:32;;;;;;;2.35;1.42;;;17.20;99.90;;;;;;2602934;54;20907;31
2022/08/31 01:58:07;;;;;;;5.28;2.35;;;17.10;99.90;;;;;;2603901;54;20031;31
2022/08/31 02:00:56;;;;;;;6.20;2.58;;;17.00;99.90;;;;;;2604023;54;20084;31
2022/08/31 02:03:33;;;;;;;8.90;3.05;;;17.00;99.90;;;;;;2603708;54;20026;31
2022/08/31 02:06:10;;;;;;;4.05;2.30;;;16.90;99.90;;;;;;2622569;46;20144;31
2022/08/31 02:08:46;;;;;;;4.88;1.70;;;16.90;99.90;;;;;;2622071;46;20069;31
2022/08/31 02:11:24;;;;;;;3.72;2.05;;;16.90;99.90;;;;;;2622272;46;20133;31
2022/08/31 02:14:00;;;;;;;3.53;1.92;;;16.90;99.90;;;;;;2622337;46;20037;31
2022/08/31 02:16:35;;;;;;;4.67;2.37;;;16.90;99.90;;;;;;2603635;54;20026;31
2022/08/31 02:19:13;;;;;;;2.85;1.90;;;16.80;99.90;;;;;;2603620;54;20050;31
2022/08/31 02:21:47;;;;;;;5.30;2.05;;;16.80;99.90;;;;;;2622085;46;20144;31
2022/08/31 02:24:23;;;;;;;4.20;1.90;;;16.80;99.90;;;;;;2603771;54;20026;31
2022/08/31 02:27:05;;;;;;;3.60;1.60;;;16.70;99.90;;;;;;2603782;54;20026;31
2022/08/31 02:29:40;;;;;;;2.80;1.60;;;16.70;99.90;;;;;;2603677;54;20747;31
2022/08/31 02:32:15;;;;;;;3.85;2.20;;;16.70;99.90;;;;;;2603729;54;20038;31
2022/08/31 02:34:53;;;;;;;4.78;2.53;;;16.70;99.90;;;;;;2622339;46;20898;31
2022/08/31 02:37:32;;;;;;;4.70;2.97;;;16.70;99.90;;;;;;2622262;46;20903;31
2022/08/31 02:40:10;;;;;;;7.07;3.80;;;16.70;99.90;;;;;;2603801;54;20871;31
2022/08/31 02:42:50;;;;;;;4.03;2.28;;;16.60;99.90;;;;;;2622126;46;20026;31
2022/08/31 02:45:32;;;;;;;5.45;2.90;;;16.60;99.90;;;;;;2603540;54;20033;31
2022/08/31 02:48:13;;;;;;;7.05;2.38;;;16.60;99.90;;;;;;2603606;54;20800;31
2022/08/31 02:50:50;;;;;;;4.35;2.28;;;16.60;99.90;;;;;;2603743;54;20033;31
2022/08/31 02:53:25;;;;;;;3.80;2.15;;;16.60;99.90;;;;;;2603469;54;20026;31
2022/08/31 02:56:00;;;;;;;3.40;1.95;;;16.60;99.90;;;;;;2621968;46;20033;31
2022/08/31 02:58:36;;;;;;;3.93;2.10;;;16.50;99.90;;;;;;2603713;54;20749;31
2022/08/31 03:01:13;;;;;;;4.13;2.13;;;16.50;99.90;;;;;;2603569;54;20249;31
2022/08/31 03:03:48;;;;;;;3.20;2.00;;;16.50;99.90;;;;;;2622213;46;20086;31
2022/08/31 03:06:28;;;;;;;7.80;3.10;;;16.50;99.90;;;;;;2603707;54;20085;31
2022/08/31 03:09:01;;;;;;;6.25;2.88;;;16.50;99.90;;;;;;2603494;54;20061;31
2022/08/31 03:11:39;;;;;;;4.22;2.55;;;16.40;99.90;;;;;;2603760;54;20866;31
2022/08/31 03:14:14;;;;;;;4.93;2.83;;;16.40;99.90;;;;;;2603384;54;20089;31
2022/08/31 03:16:51;;;;;;;6.70;2.90;;;16.40;99.90;;;;;;2603652;54;20077;31
2022/08/31 03:19:26;;;;;;;3.70;2.60;;;16.40;99.90;;;;;;2621927;46;20085;31
2022/08/31 03:22:02;;;;;;;2.50;1.90;;;16.30;99.90;;;;;;2603422;54;20037;31
2022/08/31 03:24:38;;;;;;;8.25;3.55;;;16.30;99.90;;;;;;2603515;54;20030;31
2022/08/31 03:27:12;;;;;;;5.70;3.80;;;16.30;99.90;;;;;;2603423;54;20914;31
2022/08/31 03:29:46;;;;;;;6.22;2.67;;;16.20;99.90;;;;;;2603472;54;20342;31
2022/08/31 03:32:26;;;;;;;3.75;2.70;;;16.20;99.90;;;;;;2603524;54;20093;31
2022/08/31 03:35:02;;;;;;;6.20;3.33;;;16.20;99.90;;;;;;2621568;46;20928;31
2022/08/31 03:37:37;;;;;;;7.23;2.77;;;16.20;99.90;;;;;;2603244;54;19969;31
2022/08/31 03:40:12;;;;;;;4.30;2.20;;;16.20;99.90;;;;;;2603447;54;20274;31
2022/08/31 03:42:48;;;;;;;3.40;2.00;;;16.20;99.90;;;;;;2603598;54;20058;31
2022/08/31 03:45:23;;;;;;;2.97;2.58;;;16.20;99.90;;;;;;2621797;46;20860;31
2022/08/31 03:48:05;;;;;;;5.50;3.25;;;16.20;99.90;;;;;;2603408;54;20948;31
2022/08/31 03:50:46;;;;;;;4.53;2.45;;;16.20;99.90;;;;;;2603585;54;20927;31
2022/08/31 03:53:28;;;;;;;3.72;2.70;;;16.20;99.90;;;;;;2603292;54;20050;31
2022/08/31 03:56:08;;;;;;;6.32;2.80;;;16.20;99.90;;;;;;2603538;54;20865;31
2022/08/31 03:58:49;;;;;;;5.80;2.90;;;16.10;99.90;;;;;;2603569;54;20030;31
2022/08/31 04:01:49;;;;;;;6.87;3.00;;;16.10;99.90;;;;;;2603355;54;20112;31
2022/08/31 04:04:45;;;;;;;6.60;3.15;;;16.10;99.90;;;;;;2603505;54;20088;31
2022/08/31 04:07:44;;;;;;;4.45;3.90;;;16.10;99.90;;;;;;2603363;54;20140;31
2022/08/31 04:10:41;;;;;;;9.45;5.05;;;16.10;99.90;;;;;;2603457;54;20715;31
2022/08/31 04:13:41;;;;;;;6.70;4.60;;;16.10;99.90;;;;;;2603154;54;20167;31
2022/08/31 04:16:37;;;;;;;11.27;5.23;;;16.10;99.90;;;;;;2603150;54;20047;31
2022/08/31 04:19:37;;;;;;;7.43;4.50;;;16.10;99.90;;;;;;2602910;54;20140;31
2022/08/31 04:22:34;;;;;;;5.28;3.92;;;16.10;99.90;;;;;;2603470;54;20033;31
2022/08/31 04:25:28;;;;;;;8.03;4.97;;;16.20;99.90;;;;;;2621956;46;20818;31
2022/08/31 04:28:03;;;;;;;8.40;4.90;;;16.20;99.90;;;;;;2603449;54;20082;31
2022/08/31 04:30:39;;;;;;;15.20;6.20;;;16.20;99.90;;;;;;2603242;54;20037;31
2022/08/31 04:33:17;;;;;;;8.85;6.55;;;16.20;99.90;;;;;;2603323;54;20770;31
2022/08/31 04:35:52;;;;;;;8.53;5.40;;;16.20;99.90;;;;;;2603161;54;20981;31
2022/08/31 04:38:30;;;;;;;6.10;4.87;;;16.30;99.90;;;;;;2603418;54;20081;31
2022/08/31 04:41:08;;;;;;;8.27;5.27;;;16.20;99.90;;;;;;2621729;46;20026;31
2022/08/31 04:43:46;;;;;;;6.15;5.55;;;16.30;99.90;;;;;;2603102;54;20037;31
2022/08/31 04:46:20;;;;;;;6.63;5.10;;;16.30;99.90;;;;;;2603312;54;20026;31
2022/08/31 04:48:56;;;;;;;8.30;5.38;;;16.30;99.90;;;;;;2603275;54;19935;31
2022/08/31 04:51:34;;;;;;;10.10;5.65;;;16.30;99.90;;;;;;2621705;46;20082;31
2022/08/31 04:54:12;;;;;;;7.60;5.90;;;16.30;99.90;;;;;;2603277;54;20037;31
2022/08/31 04:56:47;;;;;;;8.90;6.85;;;16.40;99.90;;;;;;2603291;54;20050;31
2022/08/31 04:59:32;;;;;;;10.07;7.25;;;16.30;99.90;;;;;;2603179;54;20053;31
2022/08/31 05:02:21;;;;;;;8.85;5.55;;;16.40;99.90;;;;;;2603296;54;20027;31
2022/08/31 05:05:04;;;;;;;7.70;5.50;;;16.50;99.90;;;;;;2603051;54;20057;31
2022/08/31 05:07:39;;;;;;;;;;;16.50;99.90;;;;;;2603385;54;20033;31
2022/08/31 05:10:16;;;;;;;6.65;5.03;;;16.50;99.90;;;;;;2621603;46;19942;31
2022/08/31 05:12:51;;;;;;;7.35;5.40;;;16.50;99.90;;;;;;2603197;54;20030;31
2022/08/31 05:15:30;;;;;;;9.95;5.85;;;16.60;99.90;;;;;;2603179;54;20073;31
2022/08/31 05:18:05;;;;;;;10.20;5.82;;;16.60;99.90;;;;;;2602972;54;20917;31
2022/08/31 05:20:43;;;;;;;8.07;5.60;;;16.60;99.90;;;;;;2603097;54;20136;31
2022/08/31 05:23:17;;;;;;;6.88;5.68;;;16.60;99.90;;;;;;2621350;46;20859;31
2022/08/31 05:25:56;;;;;;;7.13;5.88;;;16.60;99.90;;;;;;2621501;46;20030;31
2022/08/31 05:28:34;;;;;;;9.10;4.80;;;16.70;99.90;;;;;;2603247;54;20046;31
2022/08/31 05:31:09;;;;;;;7.33;5.50;;;16.70;99.90;;;;;;2603164;54;20803;31
2022/08/31 05:33:50;;;;;;;9.20;5.80;;;16.80;99.90;;;;;;2604038;54;20049;31
2022/08/31 05:36:38;;;;;;;11.55;6.15;;;16.80;99.90;;;;;;2604027;54;20100;31
2022/08/31 05:39:14;;;;;;;7.70;4.50;;;16.90;99.90;;;;;;2604108;54;20046;31
2022/08/31 05:41:51;;;;;;;7.95;5.75;;;16.90;99.90;;;;;;2622310;46;20038;31
2022/08/31 05:44:27;;;;;;;9.88;7.75;;;17.00;99.90;;;;;;2603822;54;20031;31
2022/08/31 05:47:03;;;;;;;6.95;5.57;;;17.00;99.90;;;;;;2603878;54;20026;31
2022/08/31 05:49:38;;;;;;;9.90;5.57;;;17.00;99.90;;;;;;2622718;46;20872;31
2022/08/31 05:52:15;;;;;;;7.53;4.40;;;17.10;99.90;;;;;;2603945;54;20022;31
2022/08/31 05:54:50;;;;;;;7.60;4.50;;;17.10;99.90;;;;;;2603615;54;20860;31
2022/08/31 05:57:27;;;;;;;6.27;4.57;;;17.20;99.90;;;;;;2603767;54;20033;31
2022/08/31 06:00:02;;;;;;;8.70;4.90;;;17.20;99.90;;;;;;2622438;46;20030;31
2022/08/31 06:02:46;;;;;;;7.00;4.72;;;17.30;99.90;;;;;;2603846;54;20027;31
2022/08/31 06:05:27;;;;;;;7.55;4.00;;;17.30;99.90;;;;;;2603826;54;20034;31
2022/08/31 06:08:05;;;;;;;8.90;4.32;;;17.40;99.90;;;;;;2622213;46;20026;31
2022/08/31 06:10:39;;;;;;;;;;;17.50;99.90;;;;;;2603925;54;20728;31
2022/08/31 06:13:17;;;;;;;6.38;3.30;;;17.50;99.90;;;;;;2603867;54;19934;31
2022/08/31 06:15:52;;;;;;;6.33;3.77;;;17.60;99.90;;;;;;2622619;46;20173;31
2022/08/31 06:18:27;;;;;;;6.65;3.63;;;17.60;99.90;;;;;;2622179;46;20030;31
2022/08/31 06:21:07;;;;;;;7.03;3.72;;;17.60;99.90;;;;;;2621873;46;21415;31
2022/08/31 06:23:43;;;;;;;5.78;3.47;;;17.60;99.90;;;;;;2603655;54;20036;31
2022/08/31 06:26:19;;;;;;;4.68;3.00;;;17.60;99.90;;;;;;2603952;54;20845;31
2022/08/31 06:29:02;;;;;;;5.95;3.28;;;17.60;99.90;;;;;;2621836;46;20131;31
2022/08/31 06:31:45;;;;;;;7.20;3.35;;;17.70;99.90;;;;;;2603743;54;20034;31
2022/08/31 06:34:24;;;;;;;3.20;2.75;;;17.60;99.90;;;;;;2702164;39;20553;31
2022/08/31 06:37:19;;;;;;;3.95;3.00;;;17.70;99.90;;;;;;2603795;54;20032;31
2022/08/31 06:40:07;;;;;;;5.00;3.10;;;17.70;99.90;;;;;;2603743;54;20046;31
2022/08/31 06:42:57;;;;;;;4.82;3.42;;;17.70;99.90;;;;;;2603552;54;20030;31
2022/08/31 06:45:44;;;;;;;9.27;3.58;;;17.70;99.90;;;;;;2603594;54;20556;31
2022/08/31 06:48:39;;;;;;;6.60;3.20;;;17.70;99.90;;;;;;2603910;54;20053;31
2022/08/31 06:51:13;;;;;;;9.73;3.80;;;17.70;99.90;;;;;;2603683;54;20030;31
2022/08/31 06:53:48;;;;;;;3.92;2.97;;;17.70;99.90;;;;;;2603568;54;20833;31
2022/08/31 06:56:41;;;;;;;6.05;2.63;;;17.80;99.90;;;;;;2603632;54;20030;31
2022/08/31 06:59:54;;;;;;;3.42;2.58;;;17.80;99.90;;;;;;2603670;54;20765;31
2022/08/31 07:02:50;;;;;;;3.70;2.63;;;17.80;99.90;;;;;;2622525;46;20030;31
2022/08/31 07:05:31;;;;;;;4.15;2.50;;;17.90;99.90;;;;;;2603692;54;20815;31
2022/08/31 07:08:06;;;;;;;7.13;2.83;;;17.90;99.90;;;;;;2603594;54;20346;31
2022/08/31 07:10:41;;;;;;;4.10;2.40;;;17.90;99.90;;;;;;2603805;54;20030;31
2022/08/31 07:16:05;;;;;;;4.97;2.50;;;17.90;99.90;;;;;;2603448;54;20740;31
2022/08/31 07:18:43;;;;;;;;;;;18.00;99.90;;;;;;2603689;54;20133;31
2022/08/31 07:21:21;;;;;;;5.13;2.60;;;18.00;99.90;;;;;;2621769;46;19946;31
2022/08/31 07:23:57;;;;;;;6.60;2.42;;;18.00;99.90;;;;;;2603651;54;20931;31
2022/08/31 07:26:35;;;;;;;4.00;2.40;;;18.10;99.90;;;;;;2622092;46;20022;31
2022/08/31 07:29:13;;;;;;;4.85;2.03;;;18.10;99.90;;;;;;2603556;54;20026;31
2022/08/31 07:31:50;;;;;;;3.65;1.88;;;18.20;99.90;;;;;;2603471;54;20920;31
2022/08/31 07:34:32;;;;;;;6.65;2.35;;;18.30;99.90;;;;;;2603622;54;20050;31
2022/08/31 07:43:04;;;;;;;5.47;2.30;;;18.60;99.90;;;;;;2603332;54;20838;31
2022/08/31 07:45:40;;;;;;;11.25;2.65;;;18.70;99.90;;;;;;2603501;54;20053;31
2022/08/31 07:48:26;;;;;;;6.28;2.72;;;18.80;99.90;;;;;;2603407;54;20049;31
2022/08/31 07:51:22;;;;;;;4.22;1.92;;;18.90;99.90;;;;;;2603382;54;20897;31
2022/08/31 07:54:16;;;;;;;5.83;1.83;;;19.00;99.90;;;;;;2603080;54;20026;31
2022/08/31 07:57:07;;;;;;;7.68;2.28;;;19.10;99.90;;;;;;2603444;54;19941;31
2022/08/31 07:59:43;;;;;;;6.17;2.33;;;19.10;99.90;;;;;;2603560;54;20030;31
2022/08/31 08:02:19;;;;;;;7.40;2.50;;;19.20;99.90;;;;;;2603488;54;20882;31
2022/08/31 08:04:59;;;;;;;7.20;2.53;;;19.20;99.90;;;;;;2621865;46;20127;31
2022/08/31 08:08:11;;;;;;;4.72;1.90;;;19.20;99.90;;;;;;2603111;54;20084;31
2022/08/31 08:11:05;;;;;;;3.65;2.00;;;19.20;99.90;;;;;;2603319;54;20026;31
2022/08/31 08:14:07;;;;;;;6.50;2.25;;;19.20;99.90;;;;;;2603231;54;19935;31
2022/08/31 08:16:54;;;;;;;4.18;1.92;;;19.20;99.90;;;;;;2603182;54;20827;31
2022/08/31 08:19:42;;;;;;;6.15;1.70;;;19.20;99.90;;;;;;2603221;54;20033;31
2022/08/31 08:22:16;;;;;;;5.30;1.95;;;19.20;99.90;;;;;;2603317;54;20031;31
2022/08/31 08:25:36;;;;;;;6.53;2.03;;;19.10;99.90;;;;;;2701648;39;20524;31
2022/08/31 08:28:28;;;;;;;6.30;1.55;;;19.10;99.90;;;;;;2603372;54;20034;31
2022/08/31 08:31:21;;;;;;;6.32;1.50;;;19.00;99.90;;;;;;2603544;54;20030;31
2022/08/31 08:33:59;;;;;;;5.10;2.20;;;19.00;99.90;;;;;;2621707;46;20613;31
2022/08/31 08:36:39;;;;;;;2.93;1.90;;;19.00;99.90;;;;;;2603215;54;20050;31
2022/08/31 08:39:15;;;;;;;5.43;2.20;;;19.00;99.90;;;;;;2603335;54;20870;31
2022/08/31 08:42:01;;;;;;;;;;;19.00;99.90;;;;;;2603460;54;20866;31
2022/08/31 08:44:39;;;;;;;4.45;2.28;;;19.00;99.90;;;;;;2603389;54;19942;31
2022/08/31 08:47:19;;;;;;;5.75;1.90;;;18.90;99.90;;;;;;2603224;54;20898;31
2022/08/31 08:50:05;;;;;;;3.08;1.90;;;19.00;99.90;;;;;;2603181;54;20890;31
2022/08/31 08:52:45;;;;;;;6.00;1.67;;;19.00;99.90;;;;;;2603157;54;20033;31
2022/08/31 08:55:22;;;;;;;4.93;2.03;;;18.90;99.90;;;;;;2603189;54;20030;31
2022/08/31 08:58:01;;;;;;;4.22;1.80;;;18.90;99.90;;;;;;2603062;54;20336;31
2022/08/31 09:00:45;;;;;;;4.50;1.67;;;19.00;99.90;;;;;;2602951;54;22371;31
2022/08/31 09:03:26;;;;;;;4.40;1.90;;;19.10;99.90;;;;;;2603336;54;20026;31
2022/08/31 09:06:26;;;;;;;4.13;1.48;;;19.10;99.90;;;;;;2603362;54;20758;31
2022/08/31 09:09:35;;;;;;;2.83;1.70;;;19.20;99.90;;;;;;2603051;54;20088;31
2022/08/31 09:12:24;;;;;;;5.00;2.05;;;19.30;99.90;;;;;;2603038;54;20023;31
2022/08/31 09:15:37;;;;;;;4.35;2.15;;;19.30;99.90;;;;;;2603017;54;20797;31
2022/08/31 09:18:32;;;;;;;5.25;2.00;;;19.40;99.90;;;;;;2602866;54;20085;31
2022/08/31 09:21:24;;;;;;;4.50;1.85;;;19.50;99.90;;;;;;2603374;54;20026;31
2022/08/31 09:24:01;;;;;;;5.10;2.30;;;19.70;99.90;;;;;;2603084;54;20052;31
2022/08/31 09:27:16;;;;;;;3.35;2.00;;;19.80;99.90;;;;;;2603242;54;20808;31
2022/08/31 09:29:56;;;;;;;3.03;1.90;;;20.10;99.90;;;;;;2701498;39;20477;31
2022/08/31 09:32:31;;;;;;;2.97;1.60;;;20.30;99.90;;;;;;2603187;54;20023;31
2022/08/31 09:35:13;;;;;;;5.63;2.00;;;20.50;99.90;;;;;;2603031;54;20049;31
2022/08/31 09:37:51;;;;;;;6.35;1.95;;;20.60;99.90;;;;;;2602934;54;20096;31
2022/08/31 09:40:35;;;;;;;6.50;1.83;;;20.80;99.90;;;;;;2621244;47;20049;31
2022/08/31 09:43:11;;;;;;;6.35;1.83;;;20.90;99.90;;;;;;2603067;54;20085;31
2022/08/31 09:45:55;;;;;;;3.28;1.77;;;21.20;99.90;;;;;;2602878;54;20029;31
2022/08/31 09:48:47;;;;;;;4.85;1.45;;;21.30;99.90;;;;;;2602810;54;20030;31
2022/08/31 09:56:54;;;;;;;3.47;1.40;;;22.00;99.90;;;;;;2603224;54;20877;31
2022/08/31 09:59:36;;;;;;;5.03;1.73;;;22.30;99.90;;;;;;2773019;31;20593;31
2022/08/31 10:02:17;;;;;;;5.97;1.65;;;22.40;99.90;;;;;;2603111;54;20948;31
2022/08/31 10:04:53;;;;;;;4.03;1.40;;;22.50;99.90;;;;;;2602972;54;20763;31
2022/08/31 10:07:36;;;;;;;5.60;1.73;;;22.60;99.90;;;;;;2621112;47;20936;31
2022/08/31 10:10:15;;;;;;;3.93;1.93;;;22.70;99.90;;;;;;2621484;47;20924;31
2022/08/31 10:13:05;;;;;;;5.57;1.73;;;22.60;99.90;;;;;;2602925;54;20081;31
2022/08/31 10:15:42;;;;;;;3.78;1.17;;;22.50;99.90;;;;;;2602847;54;20027;31
2022/08/31 10:18:21;;;;;;;6.05;1.40;;;22.40;99.90;;;;;;2603494;54;20097;31
2022/08/31 10:20:57;;;;;;;4.10;1.25;;;22.30;99.90;;;;;;2603984;54;20072;31
2022/08/31 10:23:35;;;;;;;2.63;1.20;;;22.30;99.90;;;;;;2603727;54;20030;31
2022/08/31 10:26:17;;;;;;;2.90;1.42;;;22.20;99.90;;;;;;2702292;39;20858;31
2022/08/31 10:28:53;;;;;;;3.10;1.60;;;22.10;99.90;;;;;;2603923;54;20564;31
2022/08/31 10:31:30;;;;;;;5.60;1.52;;;22.00;99.90;;;;;;2603665;54;20022;31
2022/08/31 10:36:54;;;;;;;2.65;1.00;;;22.00;99.90;;;;;;2603648;54;20583;31
2022/08/31 10:39:30;;;;;;;4.88;1.10;;;22.00;99.90;;;;;;2603579;54;20029;31
2022/08/31 10:42:11;;;;;;;2.10;1.10;;;21.90;99.90;;;;;;2622303;46;20562;31
2022/08/31 10:44:55;;;;;;;3.70;0.80;;;21.90;99.90;;;;;;2603525;54;20891;31
2022/08/31 10:47:32;;;;;;;3.00;1.10;;;21.90;99.90;;;;;;2603869;54;20896;31
2022/08/31 10:50:09;;;;;;;7.15;1.38;;;21.90;99.90;;;;;;2613237;46;20030;31
2022/08/31 10:52:50;;;;;;;1.92;0.90;;;21.90;99.90;;;;;;2603507;54;20027;31
2022/08/31 10:55:31;;;;;;;2.85;0.80;;;22.00;99.90;;;;;;2603716;54;20047;31
2022/08/31 10:58:15;;;;;;;2.90;0.93;;;22.10;99.90;;;;;;2603507;54;20748;31
2022/08/31 11:00:52;;;;;;;2.33;0.68;;;22.20;99.90;;;;;;2603572;54;20894;31
2022/08/31 11:03:40;;;;;;;3.67;0.73;;;22.20;99.90;;;;;;2603466;54;20029;31
2022/08/31 11:06:16;;;;;;;1.40;0.70;;;22.30;99.90;;;;;;2622010;46;20049;31
2022/08/31 11:08:56;;;;;;;1.63;0.67;;;22.20;99.90;;;;;;2622064;46;20108;31
2022/08/31 11:11:36;;;;;;;4.25;0.75;;;22.20;99.90;;;;;;2622110;46;20030;31
2022/08/31 11:14:35;;;;;;;1.92;0.63;;;22.20;99.90;;;;;;2603798;54;20038;31
2022/08/31 11:17:20;;;;;;;2.80;0.80;;;22.10;99.90;;;;;;2621966;46;20026;31
2022/08/31 11:20:09;;;;;;;4.15;0.90;;;22.00;99.90;;;;;;2603811;54;20895;31
2022/08/31 11:22:55;;;;;;;1.90;0.70;;;22.00;99.90;;;;;;2603640;54;20026;31
2022/08/31 11:26:07;;;;;;;1.35;0.90;;;22.00;99.90;;;;;;2603546;54;20080;31
2022/08/31 11:28:47;;;;;;;2.22;0.70;;;22.00;99.90;;;;;;2602914;54;20027;31
2022/08/31 11:31:30;;;;;;;3.67;0.60;;;22.00;99.90;;;;;;2603535;54;20030;31
2022/08/31 11:34:11;;;;;;;2.80;0.80;;;22.00;99.90;;;;;;2603696;54;20030;31
2022/08/31 11:36:52;;;;;;;3.13;0.75;;;22.00;99.90;;;;;;2721000;39;21032;31
2022/08/31 11:42:59;;;;;;;6.25;0.95;;;22.00;99.90;;;;;;2603253;54;20904;31
2022/08/31 11:45:36;;;;;;;2.00;0.60;;;22.10;99.90;;;;;;2603467;54;20048;31
2022/08/31 11:48:50;;;;;;;2.28;0.60;;;22.20;99.90;;;;;;2603359;54;20022;31
2022/08/31 11:51:24;;;;;;;2.50;0.70;;;22.30;99.90;;;;;;2603585;54;20101;31
2022/08/31 11:54:01;;;;;;;1.25;0.50;;;22.30;99.90;;;;;;2603639;54;20089;31
2022/08/31 11:56:38;;;;;;;3.00;0.50;;;22.30;99.90;;;;;;2603646;54;20160;31
2022/08/31 11:59:28;;;;;;;1.60;0.70;;;22.40;99.90;;;;;;2603526;54;20038;31
2022/08/31 12:02:35;;;;;;;2.47;0.70;;;22.40;99.90;;;;;;2603468;54;20878;31
2022/08/31 12:05:12;;;;;;;6.45;0.80;;;22.50;99.90;;;;;;2603694;54;20033;31
2022/08/31 12:07:48;;;;;;;3.65;0.70;;;22.40;99.90;;;;;;2621688;46;25048;31
2022/08/31 12:10:34;;;;;;;3.15;0.90;;;22.50;99.90;;;;;;2603707;54;20034;31
2022/08/31 12:13:35;;;;;;;2.20;0.60;;;22.60;99.90;;;;;;2603414;54;20077;31
2022/08/31 12:16:23;;;;;;;1.83;0.77;;;22.70;99.90;;;;;;2621777;46;20027;31
2022/08/31 12:19:08;;;;;;;3.33;0.60;;;22.80;99.90;;;;;;2602969;54;19938;31
2022/08/31 12:24:36;;;;;;;1.33;0.90;;;22.80;99.90;;;;;;2603305;54;20073;31
2022/08/31 12:27:33;;;;;;;4.38;0.77;;;22.80;99.90;;;;;;2603204;54;20030;31
2022/08/31 12:30:20;;;;;;;3.90;0.80;;;22.90;99.90;;;;;;2701919;39;21488;31
2022/08/31 12:32:59;;;;;;;2.40;0.88;;;22.80;99.90;;;;;;2603682;54;20031;31
2022/08/31 12:35:35;;;;;;;6.40;1.00;;;22.90;99.90;;;;;;2603218;54;21481;31
2022/08/31 12:38:10;;;;;;;3.40;0.75;;;22.90;99.90;;;;;;2603301;54;21291;31
2022/08/31 12:40:46;;;;;;;;;;;22.80;99.90;;;;;;2603448;54;20096;31
2022/08/31 12:43:25;;;;;;;4.00;0.75;;;22.80;99.90;;;;;;2621985;46;19957;31
2022/08/31 12:46:27;;;;;;;2.95;0.63;;;22.80;99.90;;;;;;2603370;54;20264;31
2022/08/31 12:49:08;;;;;;;2.92;0.75;;;22.90;99.90;;;;;;2603314;54;20879;31
2022/08/31 12:51:45;;;;;;;1.40;0.50;;;22.90;99.90;;;;;;2603283;54;20113;31
2022/08/31 12:55:08;;;;;;;2.58;0.60;;;23.00;99.90;;;;;;2701895;39;20545;31
2022/08/31 12:57:55;;;;;;;1.30;0.50;;;23.10;99.90;;;;;;2603188;54;20811;31
2022/08/31 13:00:34;;;;;;;1.15;0.57;;;23.10;99.90;;;;;;2621467;46;20883;31
2022/08/31 13:03:17;;;;;;;2.40;0.50;;;23.10;99.90;;;;;;2621080;46;20026;31
2022/08/31 13:06:07;;;;;;;1.30;0.70;;;23.20;99.90;;;;;;2603333;54;20238;31
2022/08/31 13:08:43;;;;;;;1.90;0.65;;;23.30;99.90;;;;;;2603559;54;20768;31
2022/08/31 13:11:27;;;;;;;1.38;0.60;;;23.40;99.90;;;;;;2603238;54;20117;31
2022/08/31 13:14:17;;;;;;;1.23;0.50;;;23.40;99.90;;;;;;2603523;54;20026;31
2022/08/31 13:16:55;;;;;;;1.60;0.70;;;23.40;99.90;;;;;;2603200;54;20030;31
2022/08/31 13:19:31;;;;;;;3.65;0.68;;;23.30;99.90;;;;;;2603483;54;20053;31
2022/08/31 13:22:07;;;;;;;1.65;0.50;;;23.20;99.90;;;;;;2603361;54;20057;31
2022/08/31 13:24:42;;;;;;;;;;;23.20;99.90;;;;;;2603290;54;20131;31
2022/08/31 13:27:26;;;;;;;2.30;0.90;;;23.10;99.90;;;;;;2603419;54;20763;31
2022/08/31 13:30:17;;;;;;;2.77;0.77;;;23.10;99.90;;;;;;2603043;54;20093;31
2022/08/31 13:32:56;;;;;;;2.30;0.50;;;23.10;99.90;;;;;;2603158;54;20029;31
2022/08/31 13:35:34;;;;;;;1.65;0.60;;;23.10;99.90;;;;;;2617514;47;20026;31
2022/08/31 13:38:10;;;;;;;9.38;1.10;;;23.10;99.90;;;;;;2621810;47;20076;31
2022/08/31 13:40:52;;;;;;;3.47;0.90;;;23.20;99.90;;;;;;2602906;54;20085;31
2022/08/31 13:43:27;;;;;;;2.63;0.82;;;23.20;99.90;;;;;;2603102;54;20026;31
2022/08/31 13:46:03;;;;;;;1.35;0.60;;;23.10;99.90;;;;;;2603051;54;20125;31
2022/08/31 13:48:39;;;;;;;;;;;23.10;99.90;;;;;;2621491;47;20918;31
2022/08/31 13:51:19;;;;;;;9.60;1.00;;;23.10;99.90;;;;;;2602928;54;19938;31
2022/08/31 13:54:07;;;;;;;2.50;0.90;;;23.20;99.90;;;;;;2604037;54;20038;31
2022/08/31 13:56:58;;;;;;;1.65;0.90;;;23.20;99.90;;;;;;2603792;54;20026;31
2022/08/31 13:59:37;;;;;;;1.13;0.60;;;23.10;99.90;;;;;;2603668;54;20871;31
2022/08/31 14:02:34;;;;;;;1.83;0.65;;;23.10;99.90;;;;;;2622476;46;20969;31
2022/08/31 14:05:13;;;;;;;3.30;0.70;;;23.10;99.90;;;;;;2603750;54;20034;31
2022/08/31 14:08:00;;;;;;;1.65;0.70;;;23.10;99.90;;;;;;2603694;54;20027;31
2022/08/31 14:10:37;;;;;;;1.60;0.60;;;23.00;99.90;;;;;;2603979;54;20029;31
2022/08/31 14:13:19;;;;;;;1.77;0.80;;;23.00;99.90;;;;;;2721382;39;21028;31
2022/08/31 14:15:55;;;;;;;2.42;0.70;;;22.90;99.90;;;;;;2603865;54;20972;31
2022/08/31 14:18:32;;;;;;;2.38;0.70;;;22.80;99.90;;;;;;2603868;54;20068;31
2022/08/31 14:21:21;;;;;;;1.88;0.60;;;22.80;99.90;;;;;;2603631;54;19934;31
2022/08/31 14:24:01;;;;;;;3.88;0.90;;;22.80;99.90;;;;;;2603966;54;20825;31
2022/08/31 14:26:35;;;;;;;2.15;0.50;;;22.70;99.90;;;;;;2603997;54;20031;31
2022/08/31 14:29:11;;;;;;;3.45;0.70;;;22.80;99.90;;;;;;2603678;54;20026;31
2022/08/31 14:31:50;;;;;;;1.90;0.95;;;22.80;99.90;;;;;;2622477;46;20031;31
2022/08/31 14:34:28;;;;;;;1.17;0.70;;;22.70;99.90;;;;;;2603671;54;20030;31
2022/08/31 14:37:09;;;;;;;2.43;0.90;;;22.70;99.90;;;;;;2603623;54;20037;31
2022/08/31 14:39:44;;;;;;;3.28;0.80;;;22.70;99.90;;;;;;2603814;54;20857;31
2022/08/31 14:42:23;;;;;;;2.58;0.70;;;22.60;99.90;;;;;;2622251;46;20732;31